Time;durP1;ratioP1;P1;durP2;ratioP2;P2;SDS_P1;SDS_P2;PMS_P1;PMS_P2;Temp;Humidity;BMP_temperature;BMP_pressure;BME280_temperature;BME280_humidity;BME280_pressure;Samples;Min_cycle;Max_cycle;Signal;HPM_P1;HPM_P2
2023/11/25 00:02:43;;;;;;;6.00;1.10;;;;;4.70;100935.00;;;;10312256;28;20217;-79
2023/11/25 00:07:44;;;;;;;8.67;1.80;;;;;4.70;100925.00;;;;10325752;28;20233;-79
2023/11/25 00:12:47;;;;;;;9.37;1.50;;;;;4.50;100925.00;;;;10304069;28;20216;-79
2023/11/25 00:17:48;;;;;;;7.77;1.97;;;;;4.50;100932.00;;;;10343010;28;20219;-80
2023/11/25 00:22:49;;;;;;;6.33;1.17;;;;;4.30;100929.00;;;;10309475;28;20806;-80
2023/11/25 00:27:50;;;;;;;10.43;1.40;;;;;4.30;100925.00;;;;10327413;28;20227;-79
2023/11/25 00:32:52;;;;;;;3.10;1.10;;;;;4.30;100933.00;;;;10306044;28;20251;-79
2023/11/25 00:37:53;;;;;;;7.73;1.60;;;;;4.20;100933.00;;;;10304351;28;20562;-79
2023/11/25 00:42:54;;;;;;;4.73;1.27;;;;;4.20;100945.00;;;;10301734;28;20306;-78
2023/11/25 00:47:56;;;;;;;4.97;1.50;;;;;4.30;100941.00;;;;10329599;28;20261;-78
2023/11/25 00:52:57;;;;;;;9.30;1.70;;;;;4.50;100945.00;;;;10319675;28;20223;-79
2023/11/25 00:57:59;;;;;;;6.40;1.50;;;;;4.60;100938.00;;;;10297532;28;20227;-78
2023/11/25 01:03:01;;;;;;;4.73;1.67;;;;;4.60;100944.00;;;;10304062;28;20266;-80
2023/11/25 01:08:02;;;;;;;6.37;1.10;;;;;4.60;100942.00;;;;10350457;28;22101;-79
2023/11/25 01:13:03;;;;;;;7.23;1.50;;;;;4.40;100953.00;;;;10343653;28;20306;-78
2023/11/25 01:18:04;;;;;;;4.67;1.20;;;;;4.20;100964.00;;;;10328092;28;20223;-78
2023/11/25 01:23:05;;;;;;;8.47;1.60;;;;;4.10;100967.00;;;;10330331;28;20322;-79
2023/11/25 01:28:07;;;;;;;8.93;1.63;;;;;4.00;100972.00;;;;10344332;28;20249;-78
2023/11/25 01:33:09;;;;;;;9.87;1.57;;;;;3.90;100958.00;;;;10327269;28;20569;-78
2023/11/25 01:38:10;;;;;;;9.40;1.87;;;;;3.90;100964.00;;;;10323442;28;20225;-79
2023/11/25 01:43:14;;;;;;;6.70;2.00;;;;;3.70;100960.00;;;;10325324;28;20211;-78
2023/11/25 01:48:15;;;;;;;5.23;1.63;;;;;3.40;100958.00;;;;10339822;28;20230;-81
2023/11/25 01:53:20;;;;;;;8.17;1.50;;;;;3.20;100963.00;;;;10341934;28;20211;-79
2023/11/25 01:58:21;;;;;;;6.60;1.70;;;;;2.90;100974.00;;;;10310304;28;20273;-79
2023/11/25 02:03:23;;;;;;;5.53;2.03;;;;;2.80;100973.00;;;;10324319;28;20227;-77
2023/11/25 02:08:24;;;;;;;5.33;2.47;;;;;2.80;100975.00;;;;10341779;28;20219;-79
2023/11/25 02:13:25;;;;;;;10.40;1.53;;;;;2.70;100967.00;;;;10338108;28;20227;-78
2023/11/25 02:18:29;;;;;;;6.83;1.57;;;;;2.80;100971.00;;;;10327621;28;20228;-78
2023/11/25 02:23:30;;;;;;;4.87;1.23;;;;;2.80;100972.00;;;;10345457;28;20227;-78
2023/11/25 02:28:31;;;;;;;5.37;1.23;;;;;2.80;100982.00;;;;10354951;28;20227;-78
2023/11/25 02:33:36;;;;;;;5.77;1.53;;;;;2.70;100976.00;;;;10330903;28;20223;-78
2023/11/25 02:38:37;;;;;;;11.87;1.90;;;;;2.70;100981.00;;;;10308239;28;20251;-79
2023/11/25 02:43:38;;;;;;;10.27;1.70;;;;;2.70;100970.00;;;;10320650;28;20312;-78
2023/11/25 02:48:39;;;;;;;10.43;1.63;;;;;2.70;100968.00;;;;10335592;28;20250;-78
2023/11/25 02:53:40;;;;;;;7.97;2.00;;;;;2.60;100973.00;;;;10336196;28;20239;-78
2023/11/25 02:58:43;;;;;;;6.33;1.97;;;;;2.50;100955.00;;;;10337363;28;20546;-78
2023/11/25 03:03:47;;;;;;;13.37;1.53;;;;;2.50;100972.00;;;;10346148;28;20219;-78
2023/11/25 03:08:49;;;;;;;8.47;1.87;;;;;2.40;100970.00;;;;10324321;28;20934;-78
2023/11/25 03:13:50;;;;;;;9.63;2.00;;;;;2.30;100972.00;;;;10289962;28;20219;-78
2023/11/25 03:18:51;;;;;;;8.47;2.30;;;;;2.20;100982.00;;;;10307434;28;20232;-78
2023/11/25 03:23:53;;;;;;;11.67;2.50;;;;;2.20;100968.00;;;;10301032;28;20855;-78
2023/11/25 03:28:54;;;;;;;9.40;1.87;;;;;2.20;100971.00;;;;10301044;28;20219;-77
2023/11/25 03:33:56;;;;;;;6.50;1.80;;;;;2.10;100973.00;;;;10317532;28;20219;-79
2023/11/25 03:38:58;;;;;;;8.87;1.90;;;;;2.10;100969.00;;;;10304943;28;20836;-78
2023/11/25 03:44:00;;;;;;;11.10;2.20;;;;;2.00;100967.00;;;;10315600;28;20298;-78
2023/11/25 03:49:03;;;;;;;6.43;1.33;;;;;2.00;100972.00;;;;10297444;28;20302;-78
2023/11/25 03:54:09;;;;;;;9.00;1.93;;;;;2.00;100968.00;;;;10333246;28;20208;-78
2023/11/25 03:59:10;;;;;;;11.37;1.73;;;;;2.00;100957.00;;;;10316424;28;20227;-79
2023/11/25 04:04:13;;;;;;;11.53;1.73;;;;;2.00;100960.00;;;;10311083;28;20294;-78
2023/11/25 04:09:17;;;;;;;15.00;2.63;;;;;2.00;100952.00;;;;10325998;28;20227;-78
2023/11/25 04:14:19;;;;;;;9.00;2.50;;;;;2.00;100948.00;;;;10312559;28;20781;-78
2023/11/25 04:19:20;;;;;;;14.17;2.67;;;;;2.10;100960.00;;;;10312112;28;21051;-78
2023/11/25 04:24:22;;;;;;;11.67;2.50;;;;;2.10;100967.00;;;;10318776;28;20700;-78
2023/11/25 04:29:23;;;;;;;14.50;2.57;;;;;2.10;100985.00;;;;10313573;28;20227;-78
2023/11/25 04:34:24;;;;;;;15.97;2.37;;;;;2.20;100978.00;;;;10298044;28;20239;-78
2023/11/25 04:39:26;;;;;;;10.73;2.00;;;;;2.20;100972.00;;;;10329866;28;20227;-78
2023/11/25 04:44:27;;;;;;;12.57;2.10;;;;;2.50;100980.00;;;;10314710;28;20265;-78
2023/11/25 04:49:29;;;;;;;17.87;3.00;;;;;2.70;100978.00;;;;10324754;28;20223;-79
2023/11/25 04:54:30;;;;;;;12.37;2.60;;;;;2.70;100962.00;;;;10314464;28;20266;-78
2023/11/25 04:59:31;;;;;;;13.33;3.37;;;;;2.70;100961.00;;;;10314250;28;20226;-79
2023/11/25 05:04:32;;;;;;;11.60;2.67;;;;;2.60;100964.00;;;;10306055;28;20256;-78
2023/11/25 05:09:38;;;;;;;11.10;2.13;;;;;2.60;100965.00;;;;10313309;28;20223;-77
2023/11/25 05:14:40;;;;;;;15.93;2.57;;;;;2.60;100962.00;;;;10357689;28;20219;-78
2023/11/25 05:19:42;;;;;;;12.33;2.33;;;;;2.90;100962.00;;;;10326123;28;20225;-80
2023/11/25 05:24:43;;;;;;;16.80;3.30;;;;;3.10;100956.00;;;;10315798;28;20288;-79
2023/11/25 05:29:44;;;;;;;10.67;2.63;;;;;3.30;100962.00;;;;10296227;28;20882;-78
2023/11/25 05:34:45;;;;;;;12.33;2.50;;;;;3.40;100958.00;;;;10319922;28;20219;-77
2023/11/25 05:39:47;;;;;;;15.77;2.73;;;;;3.50;100979.00;;;;10325545;28;21030;-78
2023/11/25 05:44:48;;;;;;;16.17;2.73;;;;;3.60;100993.00;;;;10307384;28;20323;-80
2023/11/25 05:49:49;;;;;;;13.17;2.27;;;;;3.80;101009.00;;;;10313668;28;20230;-80
2023/11/25 05:54:51;;;;;;;13.93;2.33;;;;;4.00;100993.00;;;;10312264;28;20894;-79
2023/11/25 05:59:52;;;;;;;5.00;1.30;;;;;4.10;101006.00;;;;10307687;28;20306;-76
2023/11/25 06:04:53;;;;;;;13.70;2.13;;;;;4.00;100994.00;;;;10313516;28;20846;-77
2023/11/25 06:09:54;;;;;;;5.03;1.67;;;;;4.00;100990.00;;;;10339142;28;20246;-76
2023/11/25 06:14:55;;;;;;;10.60;1.80;;;;;4.00;100987.00;;;;10340799;28;20905;-76
2023/11/25 06:19:57;;;;;;;16.63;2.23;;;;;4.00;100990.00;;;;10354537;28;20215;-76
2023/11/25 06:25:00;;;;;;;7.80;2.20;;;;;3.90;100980.00;;;;10318138;28;20230;-77
2023/11/25 06:30:02;;;;;;;11.07;2.03;;;;;3.90;100995.00;;;;10305525;28;20713;-78
2023/11/25 06:35:06;;;;;;;7.30;1.50;;;;;3.90;100984.00;;;;10307300;28;20252;-77
2023/11/25 06:40:07;;;;;;;16.00;3.70;;;;;3.90;100970.00;;;;10317088;28;20223;-77
2023/11/25 06:45:09;;;;;;;12.70;2.53;;;;;3.80;100973.00;;;;10327521;28;20331;-77
2023/11/25 06:50:11;;;;;;;5.83;2.00;;;;;3.70;100966.00;;;;10340233;28;20237;-77
2023/11/25 06:55:12;;;;;;;14.17;2.73;;;;;3.60;100952.00;;;;10332665;28;20302;-79
2023/11/25 07:00:14;;;;;;;14.63;3.27;;;;;3.50;100956.00;;;;10330034;28;20223;-78
2023/11/25 07:05:15;;;;;;;16.27;2.53;;;;;3.60;100957.00;;;;10337929;28;20292;-77
2023/11/25 07:10:16;;;;;;;13.73;3.20;;;;;3.60;100954.00;;;;10323683;28;20395;-76
2023/11/25 07:15:18;;;;;;;13.43;2.77;;;;;3.60;100960.00;;;;10329387;28;20211;-77
2023/11/25 07:20:19;;;;;;;11.63;2.37;;;;;3.70;100980.00;;;;10347460;28;20220;-78
2023/11/25 07:25:20;;;;;;;11.13;2.93;;;;;3.80;100988.00;;;;10343940;28;20801;-77
2023/11/25 07:30:21;;;;;;;7.50;2.10;;;;;3.90;100976.00;;;;10316426;28;20223;-77
2023/11/25 07:35:22;;;;;;;9.00;2.77;;;;;4.00;100964.00;;;;10329636;28;20835;-78
2023/11/25 07:40:24;;;;;;;5.93;2.17;;;;;4.10;100959.00;;;;10326970;28;20220;-78
2023/11/25 07:45:26;;;;;;;5.93;1.83;;;;;4.20;100969.00;;;;10344287;28;20227;-78
2023/11/25 07:50:27;;;;;;;6.50;1.87;;;;;4.20;100974.00;;;;10342284;28;20242;-77
2023/11/25 07:55:28;;;;;;;7.13;1.80;;;;;4.20;100962.00;;;;10340020;28;20294;-78
2023/11/25 08:00:29;;;;;;;10.13;2.20;;;;;4.30;100967.00;;;;10333620;28;20220;-79
2023/11/25 08:05:30;;;;;;;5.70;1.60;;;;;4.50;100961.00;;;;10343744;28;20238;-78
2023/11/25 08:10:34;;;;;;;6.27;2.00;;;;;4.70;100973.00;;;;10346807;28;20747;-78
2023/11/25 08:15:35;;;;;;;10.00;2.00;;;;;4.80;100962.00;;;;10330564;28;20319;-79
2023/11/25 08:20:36;;;;;;;8.20;2.57;;;;;4.80;100967.00;;;;10341073;28;20290;-78
2023/11/25 08:25:37;;;;;;;8.90;2.00;;;;;4.90;100959.00;;;;10344670;28;20219;-79
2023/11/25 08:30:39;;;;;;;9.67;2.00;;;;;5.00;100948.00;;;;10306279;28;20290;-78
2023/11/25 08:35:41;;;;;;;6.10;1.67;;;;;5.00;100947.00;;;;10308806;28;20310;-78
2023/11/25 08:40:42;;;;;;;5.47;1.70;;;;;4.90;100946.00;;;;10322490;28;20223;-79
2023/11/25 08:45:47;;;;;;;13.10;2.27;;;;;4.90;100957.00;;;;10339144;28;20246;-78
2023/11/25 08:50:48;;;;;;;8.90;2.03;;;;;4.90;100946.00;;;;10327501;28;20271;-78
2023/11/25 08:55:50;;;;;;;8.17;2.13;;;;;5.50;100940.00;;;;10327869;28;20302;-79
2023/11/25 09:00:51;;;;;;;9.33;2.87;;;;;6.20;100947.00;;;;10346544;28;20230;-79
2023/11/25 09:05:52;;;;;;;6.30;1.83;;;;;6.80;100972.00;;;;10340935;28;20215;-79
2023/11/25 09:10:56;;;;;;;8.73;2.23;;;;;6.00;100950.00;;;;10340273;28;20311;-79
2023/11/25 09:15:57;;;;;;;8.87;1.87;;;;;5.60;100949.00;;;;10342674;28;20219;-77
2023/11/25 09:20:59;;;;;;;5.70;2.23;;;;;5.60;100939.00;;;;10336704;28;20234;-77
2023/11/25 09:26:00;;;;;;;8.23;1.60;;;;;5.70;100942.00;;;;10338905;28;20219;-77
2023/11/25 09:31:02;;;;;;;10.57;2.50;;;;;6.40;100954.00;;;;10330004;28;20215;-78
2023/11/25 09:36:03;;;;;;;7.17;2.10;;;;;5.90;100952.00;;;;10321797;28;20229;-77
2023/11/25 09:41:05;;;;;;;10.03;3.13;;;;;6.20;100948.00;;;;10320164;28;20681;-78
2023/11/25 09:46:06;;;;;;;9.13;2.50;;;;;6.20;100959.00;;;;10307632;28;20219;-79
2023/11/25 09:51:08;;;;;;;12.37;3.13;;;;;5.70;100980.00;;;;10346220;28;20231;-79
2023/11/25 09:56:11;;;;;;;6.20;2.10;;;;;5.60;100971.00;;;;10318438;28;20310;-78
2023/11/25 10:01:12;;;;;;;9.20;2.50;;;;;5.80;100960.00;;;;10329811;28;20266;-78
2023/11/25 10:06:14;;;;;;;6.83;2.33;;;;;6.00;100962.00;;;;10345411;28;20231;-78
2023/11/25 10:11:17;;;;;;;16.00;2.80;;;;;6.60;100961.00;;;;10345950;28;20229;-78
2023/11/25 10:16:31;;;;;;;6.10;2.33;;;;;6.60;100949.00;;;;10333224;28;20219;-79
2023/11/25 10:21:35;;;;;;;8.17;3.30;;;;;7.10;100942.00;;;;10340909;28;20211;-79
2023/11/25 10:26:37;;;;;;;7.90;2.40;;;;;7.50;100943.00;;;;10358830;28;20776;-78
2023/11/25 10:31:42;;;;;;;10.73;2.97;;;;;7.90;100921.00;;;;10325568;28;20249;-78
2023/11/25 10:36:46;;;;;;;11.33;2.23;;;;;8.10;100920.00;;;;10321556;28;20223;-79
2023/11/25 10:41:51;;;;;;;8.83;2.03;;;;;8.20;100919.00;;;;10332445;28;20215;-79
2023/11/25 10:46:56;;;;;;;3.70;1.40;;;;;8.30;100915.00;;;;10340023;28;20248;-79
2023/11/25 10:52:01;;;;;;;7.43;1.90;;;;;8.30;100918.00;;;;10310656;28;20215;-79
2023/11/25 10:57:05;;;;;;;8.77;1.20;;;;;8.40;100909.00;;;;10328219;28;20826;-79
2023/11/25 11:02:25;;;;;;;7.70;1.70;;;;;8.40;100922.00;;;;10343017;28;20216;-79
2023/11/25 11:07:30;;;;;;;9.83;1.73;;;;;8.60;100915.00;;;;10327236;28;20282;-82
2023/11/25 11:12:52;;;;;;;8.53;1.90;;;;;8.90;100904.00;;;;10328871;28;20223;-82
2023/11/25 11:18:22;;;;;;;5.07;1.60;;;;;9.30;100938.00;;;;10324478;28;20229;-82
2023/11/25 11:23:25;;;;;;;3.50;1.00;;;;;8.20;100929.00;;;;10329139;28;20219;-80
2023/11/25 11:28:38;;;;;;;5.97;0.90;;;;;7.20;100892.00;;;;10324743;28;20227;-84
2023/11/25 11:33:43;;;;;;;2.90;1.10;;;;;6.60;100882.00;;;;10354942;28;20227;-83
2023/11/25 11:51:23;;;;;;;7.23;1.23;;;;;7.50;100911.00;;;;11245736;23;20220;31
2023/11/25 12:03:01;;;;;;;11.07;2.00;;;;;8.50;100912.00;;;;10427705;23;20227;31
2023/11/25 12:08:03;;;;;;;8.37;2.10;;;;;8.50;100912.00;;;;10009593;29;20258;-86
2023/11/25 12:13:05;;;;;;;9.20;1.90;;;;;8.80;100905.00;;;;10033232;29;20316;-86
2023/11/25 12:18:06;;;;;;;9.73;2.07;;;;;9.00;100899.00;;;;10141986;23;20242;-86
2023/11/25 12:29:23;;;;;;;12.37;1.70;;;;;7.70;100913.00;;;;11493840;23;20212;31
2023/11/25 12:34:24;;;;;;;7.60;1.73;;;;;7.00;100888.00;;;;10788151;24;20219;-89
2023/11/25 12:39:26;;;;;;;7.97;2.40;;;;;6.70;100885.00;;;;10172212;24;20223;-88
2023/11/25 12:44:46;;;;;;;9.27;2.60;;;;;6.60;100894.00;;;;10216319;23;20280;-86
2023/11/25 12:50:04;;;;;;;6.35;1.70;;;;;7.10;100896.00;;;;10083765;23;20232;31
2023/11/25 12:55:10;;;;;;;16.63;2.70;;;;;7.50;100902.00;;;;10107727;24;20233;-86
2023/11/25 13:00:16;;;;;;;14.93;4.47;;;;;7.10;100905.00;;;;9963367;29;20225;-82
2023/11/25 13:05:23;;;;;;;20.73;3.50;;;;;7.30;100896.00;;;;9961977;29;20235;-84
2023/11/25 13:10:25;;;;;;;17.30;4.87;;;;;7.80;100894.00;;;;10001816;29;20484;-85
2023/11/25 13:15:26;;;;;;;14.57;3.67;;;;;7.30;100887.00;;;;9994076;29;20369;-84
2023/11/25 13:20:27;;;;;;;14.20;3.30;;;;;6.90;100881.00;;;;10034857;29;20212;-85
2023/11/25 13:25:28;;;;;;;16.77;3.30;;;;;6.60;100884.00;;;;10337025;23;20239;-85
2023/11/25 13:30:32;;;;;;;16.60;4.00;;;;;6.50;100884.00;;;;10107179;29;20302;-85
2023/11/25 13:35:33;;;;;;;12.03;2.80;;;;;6.50;100884.00;;;;10101946;29;20550;-85
2023/11/25 13:40:37;;;;;;;6.90;1.70;;;;;6.80;100895.00;;;;10090197;29;20238;-84
2023/11/25 13:45:41;;;;;;;6.33;1.33;;;;;7.20;100888.00;;;;10107599;29;20686;-86
2023/11/25 13:50:42;;;;;;;4.87;1.70;;;;;7.30;100898.00;;;;10094784;29;20219;-85
2023/11/25 13:55:46;;;;;;;5.40;1.93;;;;;7.20;100898.00;;;;10094145;29;20231;-86
2023/11/25 14:00:48;;;;;;;7.07;1.37;;;;;7.30;100889.00;;;;10085437;29;20239;-85
2023/11/25 14:05:49;;;;;;;8.47;2.00;;;;;7.10;100899.00;;;;10111736;29;20227;-87
2023/11/25 14:10:51;;;;;;;10.40;1.93;;;;;7.00;100899.00;;;;10078251;29;20228;-85
2023/11/25 14:15:52;;;;;;;15.40;3.40;;;;;6.90;100895.00;;;;10087403;29;20234;-85
2023/11/25 14:20:54;;;;;;;19.17;2.60;;;;;6.90;100894.00;;;;10074578;29;20243;-85
2023/11/25 14:25:58;;;;;;;10.70;2.40;;;;;6.90;100904.00;;;;10077807;29;20239;-84
2023/11/25 14:31:01;;;;;;;11.30;2.07;;;;;7.10;100891.00;;;;10036240;29;20250;-85
2023/11/25 14:36:04;;;;;;;11.90;2.03;;;;;7.50;100913.00;;;;9990982;29;20237;-86
2023/11/25 14:41:09;;;;;;;8.67;1.80;;;;;7.20;100902.00;;;;10018557;29;20253;-85
2023/11/25 14:46:11;;;;;;;8.83;1.83;;;;;6.60;100903.00;;;;10058178;29;20220;-84
2023/11/25 14:51:14;;;;;;;6.10;1.77;;;;;6.40;100901.00;;;;10028090;29;20239;-85
2023/11/25 14:56:16;;;;;;;9.57;2.10;;;;;6.40;100900.00;;;;10036305;29;20216;-85
2023/11/25 15:01:18;;;;;;;11.13;2.20;;;;;6.20;100916.00;;;;10067735;29;20223;-84
2023/11/25 15:06:20;;;;;;;10.03;2.20;;;;;6.10;100921.00;;;;10039316;29;20232;-85
2023/11/25 15:11:21;;;;;;;12.00;2.73;;;;;5.90;100914.00;;;;10069467;29;20310;-84
2023/11/25 15:16:23;;;;;;;7.90;2.33;;;;;5.70;100918.00;;;;10068284;29;20322;-84
2023/11/25 15:21:24;;;;;;;11.80;2.43;;;;;5.60;100910.00;;;;10075332;29;20310;-83
2023/11/25 15:26:27;;;;;;;9.43;2.83;;;;;5.50;100912.00;;;;10078249;28;20218;-83
2023/11/25 15:31:28;;;;;;;7.97;2.60;;;;;5.40;100920.00;;;;10066987;29;20471;-84
2023/11/25 15:36:30;;;;;;;8.80;2.67;;;;;5.40;100927.00;;;;10026811;29;20224;-84
2023/11/25 15:41:34;;;;;;;13.10;3.00;;;;;5.30;100926.00;;;;10013416;29;20323;-83
2023/11/25 15:46:36;;;;;;;10.13;2.60;;;;;5.20;100926.00;;;;10073610;29;20279;-83
2023/11/25 15:51:38;;;;;;;13.30;3.00;;;;;5.20;100920.00;;;;10052694;29;20231;-83
2023/11/25 15:56:40;;;;;;;10.03;2.67;;;;;5.10;100928.00;;;;10077426;29;20224;-84
2023/11/25 16:01:41;;;;;;;6.97;2.77;;;;;5.10;100921.00;;;;10059416;29;20394;-83
2023/11/25 16:06:43;;;;;;;11.77;3.37;;;;;5.20;100933.00;;;;10060425;29;20224;-84
2023/11/25 16:11:44;;;;;;;10.63;3.07;;;;;5.20;100927.00;;;;10049096;29;20303;-84
2023/11/25 16:16:47;;;;;;;8.20;2.73;;;;;5.20;100933.00;;;;10090765;29;20231;-84
2023/11/25 16:21:52;;;;;;;9.10;2.83;;;;;5.20;100938.00;;;;10059768;29;20231;-84
2023/11/25 16:26:53;;;;;;;12.53;3.00;;;;;5.20;100936.00;;;;10078975;29;20310;-83
2023/11/25 16:31:54;;;;;;;7.83;2.47;;;;;5.10;100935.00;;;;10072867;29;20219;-83
2023/11/25 16:36:56;;;;;;;11.13;2.80;;;;;5.10;100939.00;;;;10054573;29;20242;-84
2023/11/25 16:41:58;;;;;;;8.90;3.10;;;;;5.10;100938.00;;;;10077955;29;20231;-84
2023/11/25 16:46:59;;;;;;;11.33;2.87;;;;;5.10;100944.00;;;;10055807;29;20279;-84
2023/11/25 16:52:01;;;;;;;9.57;3.50;;;;;5.10;100951.00;;;;10069112;29;20306;-85
2023/11/25 16:57:02;;;;;;;10.23;3.70;;;;;5.20;100944.00;;;;10067002;29;20334;-85
2023/11/25 17:02:03;;;;;;;14.57;4.63;;;;;5.10;100950.00;;;;10076808;29;20323;-84
2023/11/25 17:07:08;;;;;;;11.13;3.93;;;;;5.20;100959.00;;;;10081283;29;20710;-85
2023/11/25 17:12:10;;;;;;;18.17;3.47;;;;;5.30;100972.00;;;;10074604;29;20238;-84
2023/11/25 17:17:12;;;;;;;12.37;3.77;;;;;5.40;100984.00;;;;10070652;29;20227;-83
2023/11/25 17:22:13;;;;;;;18.87;5.13;;;;;5.40;100988.00;;;;10076224;29;20236;-83
2023/11/25 17:27:15;;;;;;;18.90;4.47;;;;;5.40;100985.00;;;;10074356;29;20310;-83
2023/11/25 17:32:18;;;;;;;12.87;3.53;;;;;5.40;100991.00;;;;10077081;29;20227;-84
2023/11/25 17:37:19;;;;;;;9.97;3.23;;;;;5.30;100986.00;;;;10060389;29;20232;-84
2023/11/25 17:42:21;;;;;;;16.70;4.33;;;;;5.20;100988.00;;;;10059520;29;20242;-85
2023/11/25 17:47:22;;;;;;;16.10;4.03;;;;;5.10;100996.00;;;;10066654;29;20351;-83
2023/11/25 17:52:23;;;;;;;16.47;4.20;;;;;5.20;100993.00;;;;10083263;29;20322;-84
2023/11/25 17:57:25;;;;;;;15.17;3.33;;;;;5.20;100992.00;;;;10083338;29;20262;-84
2023/11/25 18:02:26;;;;;;;10.07;3.67;;;;;5.20;100987.00;;;;10081666;29;20223;-85
2023/11/25 18:07:28;;;;;;;9.63;3.53;;;;;5.20;100992.00;;;;10065117;29;20230;-85
2023/11/25 18:12:30;;;;;;;12.73;3.97;;;;;5.10;101009.00;;;;10062404;29;20735;-84
2023/11/25 18:17:31;;;;;;;12.30;4.00;;;;;5.00;100999.00;;;;10079578;29;20224;-86
2023/11/25 18:22:33;;;;;;;16.07;3.80;;;;;4.90;101005.00;;;;10076554;29;20537;-85
2023/11/25 18:27:34;;;;;;;13.57;4.40;;;;;4.80;101002.00;;;;10080417;29;20232;-86
2023/11/25 18:32:35;;;;;;;10.70;4.07;;;;;4.70;100999.00;;;;10088561;29;20256;-83
2023/11/25 18:37:36;;;;;;;20.27;4.60;;;;;4.70;100990.00;;;;10117984;29;20242;-83
2023/11/25 18:42:38;;;;;;;15.07;3.97;;;;;4.60;101008.00;;;;10115308;28;20258;-86
2023/11/25 18:47:40;;;;;;;10.93;4.00;;;;;4.70;101006.00;;;;10078460;29;20234;-85
2023/11/25 18:52:41;;;;;;;10.47;3.97;;;;;4.80;101016.00;;;;10059284;29;20250;-85
2023/11/25 18:57:43;;;;;;;15.03;4.77;;;;;5.00;101026.00;;;;10066419;29;20405;-83
2023/11/25 19:02:44;;;;;;;15.83;5.20;;;;;5.10;101039.00;;;;10081572;29;20230;-82
2023/11/25 19:07:46;;;;;;;12.10;4.37;;;;;5.10;101039.00;;;;10082021;29;20279;-84
2023/11/25 19:12:47;;;;;;;15.80;4.27;;;;;5.10;101045.00;;;;10088972;29;20938;-84
2023/11/25 19:17:48;;;;;;;14.47;5.00;;;;;5.00;101052.00;;;;10070834;29;20231;-84
2023/11/25 19:22:49;;;;;;;16.80;5.47;;;;;5.00;101044.00;;;;10070345;29;20254;-80
2023/11/25 19:27:50;;;;;;;14.30;5.53;;;;;4.90;101049.00;;;;10078061;29;20223;-84
2023/11/25 19:32:51;;;;;;;11.33;4.83;;;;;4.90;101049.00;;;;10100043;29;20263;-84
2023/11/25 19:37:53;;;;;;;16.20;5.30;;;;;4.90;101051.00;;;;10092550;29;20227;-83
2023/11/25 19:42:54;;;;;;;14.50;5.80;;;;;4.90;101044.00;;;;10091114;29;20252;-88
2023/11/25 19:47:56;;;;;;;13.90;5.07;;;;;4.90;101060.00;;;;10095311;29;20239;-85
2023/11/25 19:52:57;;;;;;;23.00;5.43;;;;;4.90;101060.00;;;;10114650;23;20243;-84
2023/11/25 19:57:58;;;;;;;15.47;4.43;;;;;4.90;101053.00;;;;10097631;29;20291;-86
2023/11/25 20:03:00;;;;;;;12.63;4.53;;;;;4.90;101056.00;;;;10092613;29;20299;-83
2023/11/25 20:08:02;;;;;;;15.37;4.90;;;;;4.80;101051.00;;;;10108837;23;20315;-85
2023/11/25 20:13:05;;;;;;;12.47;5.30;;;;;4.70;101055.00;;;;10095304;29;20230;-83
2023/11/25 20:18:06;;;;;;;14.97;5.03;;;;;4.60;101051.00;;;;10076505;29;20234;-82
2023/11/25 20:23:07;;;;;;;14.73;4.87;;;;;4.60;101037.00;;;;10096611;29;21104;-83
2023/11/25 20:28:09;;;;;;;18.23;5.97;;;;;4.60;101051.00;;;;10084451;29;20316;-83
2023/11/25 20:33:10;;;;;;;16.63;5.93;;;;;4.50;101053.00;;;;10053119;29;20243;-82
2023/11/25 20:38:12;;;;;;;12.37;5.33;;;;;4.40;101051.00;;;;10069604;29;20239;-85
2023/11/25 20:43:13;;;;;;;18.20;5.77;;;;;4.30;101058.00;;;;10062937;29;20215;-82
2023/11/25 20:48:14;;;;;;;20.10;5.67;;;;;4.30;101065.00;;;;10069636;29;20958;-82
2023/11/25 20:53:16;;;;;;;18.67;5.53;;;;;4.40;101077.00;;;;10080443;29;20230;-87
2023/11/25 20:58:17;;;;;;;17.57;5.27;;;;;4.50;101078.00;;;;10077742;29;20230;-85
2023/11/25 21:03:19;;;;;;;13.47;5.00;;;;;4.60;101076.00;;;;10095696;29;20290;-84
2023/11/25 21:08:20;;;;;;;19.10;5.20;;;;;4.70;101084.00;;;;10131883;23;20219;-83
2023/11/25 21:13:22;;;;;;;17.27;4.70;;;;;4.80;101080.00;;;;10078122;29;20534;-83
2023/11/25 21:18:23;;;;;;;13.97;5.37;;;;;4.80;101076.00;;;;10065627;29;20283;-84
2023/11/25 21:23:28;;;;;;;10.67;4.73;;;;;4.80;101073.00;;;;10072273;29;20263;-85
2023/11/25 21:28:30;;;;;;;13.10;4.50;;;;;4.80;101068.00;;;;10050913;29;20322;-84
2023/11/25 21:33:33;;;;;;;16.33;4.27;;;;;4.80;101077.00;;;;10082444;29;20306;-84
2023/11/25 21:38:34;;;;;;;13.97;4.87;;;;;4.90;101068.00;;;;10067286;29;20219;-83
2023/11/25 21:43:36;;;;;;;16.47;4.23;;;;;4.90;101074.00;;;;10070517;29;20223;-84
2023/11/25 21:48:39;;;;;;;12.37;4.33;;;;;4.70;101081.00;;;;10067356;29;20322;-86
2023/11/25 21:53:40;;;;;;;11.80;3.70;;;;;4.70;101082.00;;;;10496390;23;20254;-84
2023/11/25 21:58:41;;;;;;;17.20;3.97;;;;;4.60;101072.00;;;;10141762;29;20226;-84
2023/11/25 22:03:43;;;;;;;15.40;3.80;;;;;4.60;101074.00;;;;10067278;29;20227;-86
2023/11/25 22:08:44;;;;;;;11.30;3.60;;;;;4.60;101081.00;;;;10087277;29;20231;-82
2023/11/25 22:13:46;;;;;;;10.97;3.60;;;;;4.60;101088.00;;;;10115613;29;20221;-84
2023/11/25 22:18:47;;;;;;;20.00;3.73;;;;;4.50;101078.00;;;;10093974;29;20227;-85
2023/11/25 22:23:49;;;;;;;13.40;3.30;;;;;4.60;101088.00;;;;10088755;29;20251;-86
2023/11/25 22:28:50;;;;;;;9.57;3.30;;;;;4.70;101087.00;;;;10091009;29;20295;-89
2023/11/25 22:33:54;;;;;;;11.40;3.40;;;;;4.80;101092.00;;;;10066509;29;20290;-85
2023/11/25 22:38:56;;;;;;;12.90;3.20;;;;;4.90;101092.00;;;;10077886;29;20769;-86
2023/11/25 22:43:57;;;;;;;6.07;3.00;;;;;5.10;101087.00;;;;10088867;29;20239;-84
2023/11/25 22:48:59;;;;;;;12.00;3.30;;;;;5.10;101091.00;;;;10086292;29;20818;-86
2023/11/25 22:54:00;;;;;;;10.60;3.63;;;;;5.10;101096.00;;;;10107910;29;20236;-81
2023/11/25 22:59:01;;;;;;;14.10;3.50;;;;;5.10;101096.00;;;;10111266;29;20306;-85
2023/11/25 23:04:03;;;;;;;6.87;3.33;;;;;5.00;101094.00;;;;10138354;23;20360;-88
2023/11/25 23:09:04;;;;;;;14.00;4.67;;;;;5.00;101106.00;;;;10089944;29;20235;-87
2023/11/25 23:14:07;;;;;;;15.27;4.93;;;;;4.90;101105.00;;;;10082383;29;20528;-87
2023/11/25 23:19:08;;;;;;;15.17;5.30;;;;;4.90;101104.00;;;;10104546;29;20224;-85
2023/11/25 23:24:09;;;;;;;14.83;6.07;;;;;4.80;101095.00;;;;10095287;29;20311;-84
2023/11/25 23:29:10;;;;;;;17.77;7.30;;;;;4.80;101109.00;;;;10076663;29;20235;-86
2023/11/25 23:34:12;;;;;;;16.07;6.67;;;;;4.70;101119.00;;;;10076242;29;20231;-84
2023/11/25 23:39:13;;;;;;;12.93;6.47;;;;;4.60;101121.00;;;;10078711;29;20223;-88
2023/11/25 23:44:14;;;;;;;17.87;6.87;;;;;4.50;101113.00;;;;10083215;29;20225;-85
2023/11/25 23:49:16;;;;;;;14.10;6.87;;;;;4.50;101129.00;;;;10079373;29;20330;-86
2023/11/25 23:54:17;;;;;;;17.10;6.30;;;;;4.50;101119.00;;;;10077478;29;20311;-85
2023/11/25 23:59:19;;;;;;;17.37;6.40;;;;;4.40;101109.00;;;;10062540;29;20331;-86
